<?xml version="1.0" encoding="UTF-8" standalone="no" ?>
<gpx xmlns="http://www.topografix.com/GPX/1/1" xmlns:xsi="http://www.w3.org/2001/XMLSchema-instance" xsi:schemaLocation="http://www.topografix.com/GPX/1/1 http://www.topografix.com/GPX/1/1/gpx.xsd" version="1.1" creator="VisuGPX - https://www.visugpx.com">
  <metadata>
    <name>Tour de France 2019</name>
    <desc><![CDATA[4272km en 2 mois en tandem avec notre petit chien dans le panier avant]]></desc>
  </metadata>
  <trk>
    <name><![CDATA[Tracé 20191019-101349]]></name>
    <trkseg>
      <trkpt lat="42.26832" lon="8.69383">
        <ele>6.432</ele>
        <time>2019-10-19T08:15:16Z</time>
      </trkpt>
      <trkpt lat="42.26766" lon="8.69417">
        <ele>16.824</ele>
        <time>2019-10-19T08:25:19Z</time>
      </trkpt>
      <trkpt lat="42.26736" lon="8.69506">
        <ele>27.536</ele>
        <time>2019-10-19T08:25:49Z</time>
      </trkpt>
      <trkpt lat="42.26742" lon="8.6961">
        <ele>25.461</ele>
        <time>2019-10-19T08:26:19Z</time>
      </trkpt>
      <trkpt lat="42.26737" lon="8.69729">
        <ele>24.82</ele>
        <time>2019-10-19T08:26:49Z</time>
      </trkpt>
      <trkpt lat="42.2671" lon="8.69848">
        <ele>22.328</ele>
        <time>2019-10-19T08:27:19Z</time>
      </trkpt>
      <trkpt lat="42.26692" lon="8.69991">
        <ele>21.151</ele>
        <time>2019-10-19T08:27:52Z</time>
      </trkpt>
      <trkpt lat="42.26634" lon="8.70077">
        <ele>21.688</ele>
        <time>2019-10-19T08:28:22Z</time>
      </trkpt>
      <trkpt lat="42.26622" lon="8.70222">
        <ele>24.193</ele>
        <time>2019-10-19T08:28:52Z</time>
      </trkpt>
      <trkpt lat="42.26608" lon="8.70353">
        <ele>30.144</ele>
        <time>2019-10-19T08:29:22Z</time>
      </trkpt>
      <trkpt lat="42.2658" lon="8.70488">
        <ele>40.765</ele>
        <time>2019-10-19T08:29:52Z</time>
      </trkpt>
      <trkpt lat="42.26515" lon="8.70606">
        <ele>42.588</ele>
        <time>2019-10-19T08:30:22Z</time>
      </trkpt>
      <trkpt lat="42.2644" lon="8.70702">
        <ele>40.093</ele>
        <time>2019-10-19T08:30:52Z</time>
      </trkpt>
      <trkpt lat="42.26385" lon="8.70817">
        <ele>41.896</ele>
        <time>2019-10-19T08:31:22Z</time>
      </trkpt>
      <trkpt lat="42.26417" lon="8.70901">
        <ele>40.549</ele>
        <time>2019-10-19T08:36:40Z</time>
      </trkpt>
      <trkpt lat="42.26354" lon="8.70951">
        <ele>39.371</ele>
        <time>2019-10-19T08:37:10Z</time>
      </trkpt>
      <trkpt lat="42.26345" lon="8.7093">
        <ele>38.381</ele>
        <time>2019-10-19T08:49:43Z</time>
      </trkpt>
      <trkpt lat="42.26176" lon="8.70924">
        <ele>25.889</ele>
        <time>2019-10-19T08:50:13Z</time>
      </trkpt>
      <trkpt lat="42.26244" lon="8.70828">
        <ele>21.191</ele>
        <time>2019-10-19T08:50:43Z</time>
      </trkpt>
      <trkpt lat="42.26181" lon="8.70785">
        <ele>27.551</ele>
        <time>2019-10-19T08:51:16Z</time>
      </trkpt>
      <trkpt lat="42.26225" lon="8.70719">
        <ele>34.56</ele>
        <time>2019-10-19T08:51:46Z</time>
      </trkpt>
      <trkpt lat="42.2627" lon="8.70639">
        <ele>37.874</ele>
        <time>2019-10-19T08:52:16Z</time>
      </trkpt>
      <trkpt lat="42.26303" lon="8.7054">
        <ele>42.751</ele>
        <time>2019-10-19T08:52:46Z</time>
      </trkpt>
      <trkpt lat="42.26327" lon="8.70437">
        <ele>50.072</ele>
        <time>2019-10-19T08:53:16Z</time>
      </trkpt>
      <trkpt lat="42.26259" lon="8.70385">
        <ele>51.735</ele>
        <time>2019-10-19T08:53:46Z</time>
      </trkpt>
      <trkpt lat="42.26236" lon="8.70311">
        <ele>57.988</ele>
        <time>2019-10-19T08:54:16Z</time>
      </trkpt>
      <trkpt lat="42.26263" lon="8.70216">
        <ele>72.475</ele>
        <time>2019-10-19T08:54:46Z</time>
      </trkpt>
      <trkpt lat="42.26249" lon="8.70114">
        <ele>65.672</ele>
        <time>2019-10-19T08:55:16Z</time>
      </trkpt>
      <trkpt lat="42.26259" lon="8.70015">
        <ele>78.826</ele>
        <time>2019-10-19T08:55:46Z</time>
      </trkpt>
      <trkpt lat="42.26257" lon="8.69909">
        <ele>83.576</ele>
        <time>2019-10-19T08:56:16Z</time>
      </trkpt>
      <trkpt lat="42.26254" lon="8.69813">
        <ele>87.686</ele>
        <time>2019-10-19T08:56:46Z</time>
      </trkpt>
      <trkpt lat="42.26268" lon="8.69711">
        <ele>97.207</ele>
        <time>2019-10-19T08:57:16Z</time>
      </trkpt>
      <trkpt lat="42.2626" lon="8.696">
        <ele>85.843</ele>
        <time>2019-10-19T08:57:49Z</time>
      </trkpt>
      <trkpt lat="42.26221" lon="8.69521">
        <ele>84.875</ele>
        <time>2019-10-19T08:58:19Z</time>
      </trkpt>
      <trkpt lat="42.26251" lon="8.69454">
        <ele>90.116</ele>
        <time>2019-10-19T08:58:49Z</time>
      </trkpt>
      <trkpt lat="42.26265" lon="8.69361">
        <ele>75.766</ele>
        <time>2019-10-19T08:59:19Z</time>
      </trkpt>
      <trkpt lat="42.26269" lon="8.6927">
        <ele>93.783</ele>
        <time>2019-10-19T08:59:49Z</time>
      </trkpt>
      <trkpt lat="42.26297" lon="8.6917">
        <ele>97.688</ele>
        <time>2019-10-19T09:00:19Z</time>
      </trkpt>
      <trkpt lat="42.26283" lon="8.69071">
        <ele>100.771</ele>
        <time>2019-10-19T09:00:49Z</time>
      </trkpt>
      <trkpt lat="42.26208" lon="8.69038">
        <ele>97.019</ele>
        <time>2019-10-19T09:01:19Z</time>
      </trkpt>
      <trkpt lat="42.26131" lon="8.69062">
        <ele>99.278</ele>
        <time>2019-10-19T09:01:49Z</time>
      </trkpt>
      <trkpt lat="42.26079" lon="8.68985">
        <ele>106.972</ele>
        <time>2019-10-19T09:02:19Z</time>
      </trkpt>
      <trkpt lat="42.26022" lon="8.68908">
        <ele>107.798</ele>
        <time>2019-10-19T09:02:49Z</time>
      </trkpt>
      <trkpt lat="42.26037" lon="8.68833">
        <ele>108.194</ele>
        <time>2019-10-19T09:03:19Z</time>
      </trkpt>
      <trkpt lat="42.26085" lon="8.68773">
        <ele>109.823</ele>
        <time>2019-10-19T09:03:49Z</time>
      </trkpt>
      <trkpt lat="42.26093" lon="8.68686">
        <ele>120.821</ele>
        <time>2019-10-19T09:04:22Z</time>
      </trkpt>
      <trkpt lat="42.26108" lon="8.68577">
        <ele>126.203</ele>
        <time>2019-10-19T09:04:52Z</time>
      </trkpt>
      <trkpt lat="42.26118" lon="8.68462">
        <ele>129.279</ele>
        <time>2019-10-19T09:05:22Z</time>
      </trkpt>
      <trkpt lat="42.26106" lon="8.68345">
        <ele>125.305</ele>
        <time>2019-10-19T09:05:52Z</time>
      </trkpt>
      <trkpt lat="42.26094" lon="8.68233">
        <ele>130</ele>
        <time>2019-10-19T09:06:22Z</time>
      </trkpt>
      <trkpt lat="42.26048" lon="8.68167">
        <ele>132.966</ele>
        <time>2019-10-19T09:06:52Z</time>
      </trkpt>
      <trkpt lat="42.26029" lon="8.6807">
        <ele>137.234</ele>
        <time>2019-10-19T09:07:22Z</time>
      </trkpt>
      <trkpt lat="42.25988" lon="8.68004">
        <ele>141.914</ele>
        <time>2019-10-19T09:07:52Z</time>
      </trkpt>
      <trkpt lat="42.25954" lon="8.67929">
        <ele>143.738</ele>
        <time>2019-10-19T09:08:22Z</time>
      </trkpt>
      <trkpt lat="42.25927" lon="8.67848">
        <ele>153.391</ele>
        <time>2019-10-19T09:08:52Z</time>
      </trkpt>
      <trkpt lat="42.2591" lon="8.67759">
        <ele>157.386</ele>
        <time>2019-10-19T09:09:22Z</time>
      </trkpt>
      <trkpt lat="42.25881" lon="8.67684">
        <ele>156.482</ele>
        <time>2019-10-19T09:09:52Z</time>
      </trkpt>
      <trkpt lat="42.25812" lon="8.67691">
        <ele>158.815</ele>
        <time>2019-10-19T09:10:25Z</time>
      </trkpt>
      <trkpt lat="42.2575" lon="8.67693">
        <ele>157.825</ele>
        <time>2019-10-19T09:10:55Z</time>
      </trkpt>
      <trkpt lat="42.25752" lon="8.67619">
        <ele>170.972</ele>
        <time>2019-10-19T09:11:28Z</time>
      </trkpt>
      <trkpt lat="42.25793" lon="8.67561">
        <ele>176.882</ele>
        <time>2019-10-19T09:11:58Z</time>
      </trkpt>
      <trkpt lat="42.25822" lon="8.67488">
        <ele>175.857</ele>
        <time>2019-10-19T09:12:28Z</time>
      </trkpt>
      <trkpt lat="42.25826" lon="8.67405">
        <ele>180.454</ele>
        <time>2019-10-19T09:12:58Z</time>
      </trkpt>
      <trkpt lat="42.2578" lon="8.67354">
        <ele>180.639</ele>
        <time>2019-10-19T09:13:28Z</time>
      </trkpt>
      <trkpt lat="42.25725" lon="8.67307">
        <ele>182.171</ele>
        <time>2019-10-19T09:13:58Z</time>
      </trkpt>
      <trkpt lat="42.25691" lon="8.67251">
        <ele>188.468</ele>
        <time>2019-10-19T09:14:28Z</time>
      </trkpt>
      <trkpt lat="42.25631" lon="8.67219">
        <ele>193.017</ele>
        <time>2019-10-19T09:14:58Z</time>
      </trkpt>
      <trkpt lat="42.25574" lon="8.6718">
        <ele>192.753</ele>
        <time>2019-10-19T09:15:31Z</time>
      </trkpt>
      <trkpt lat="42.25519" lon="8.67225">
        <ele>193.477</ele>
        <time>2019-10-19T09:16:01Z</time>
      </trkpt>
      <trkpt lat="42.25491" lon="8.67192">
        <ele>204.698</ele>
        <time>2019-10-19T09:16:34Z</time>
      </trkpt>
      <trkpt lat="42.25481" lon="8.67141">
        <ele>205.003</ele>
        <time>2019-10-19T09:21:46Z</time>
      </trkpt>
      <trkpt lat="42.25513" lon="8.67071">
        <ele>205.366</ele>
        <time>2019-10-19T09:22:19Z</time>
      </trkpt>
      <trkpt lat="42.25554" lon="8.67014">
        <ele>204.63</ele>
        <time>2019-10-19T09:22:52Z</time>
      </trkpt>
      <trkpt lat="42.25604" lon="8.66984">
        <ele>209.933</ele>
        <time>2019-10-19T09:23:34Z</time>
      </trkpt>
      <trkpt lat="42.25658" lon="8.66986">
        <ele>220.065</ele>
        <time>2019-10-19T09:24:04Z</time>
      </trkpt>
      <trkpt lat="42.2571" lon="8.66964">
        <ele>220.717</ele>
        <time>2019-10-19T09:24:37Z</time>
      </trkpt>
      <trkpt lat="42.25752" lon="8.66909">
        <ele>234.599</ele>
        <time>2019-10-19T09:25:10Z</time>
      </trkpt>
      <trkpt lat="42.25714" lon="8.66869">
        <ele>238.109</ele>
        <time>2019-10-19T09:25:43Z</time>
      </trkpt>
      <trkpt lat="42.25669" lon="8.66835">
        <ele>244.714</ele>
        <time>2019-10-19T09:26:13Z</time>
      </trkpt>
      <trkpt lat="42.25628" lon="8.66784">
        <ele>254.339</ele>
        <time>2019-10-19T09:26:46Z</time>
      </trkpt>
      <trkpt lat="42.25606" lon="8.66723">
        <ele>259.174</ele>
        <time>2019-10-19T09:27:16Z</time>
      </trkpt>
      <trkpt lat="42.25581" lon="8.66661">
        <ele>265.555</ele>
        <time>2019-10-19T09:27:49Z</time>
      </trkpt>
      <trkpt lat="42.25545" lon="8.66602">
        <ele>262.645</ele>
        <time>2019-10-19T09:28:22Z</time>
      </trkpt>
      <trkpt lat="42.2548" lon="8.66596">
        <ele>266.435</ele>
        <time>2019-10-19T09:29:04Z</time>
      </trkpt>
      <trkpt lat="42.25452" lon="8.6653">
        <ele>275.494</ele>
        <time>2019-10-19T09:29:43Z</time>
      </trkpt>
      <trkpt lat="42.25452" lon="8.66452">
        <ele>283.828</ele>
        <time>2019-10-19T09:30:19Z</time>
      </trkpt>
      <trkpt lat="42.25448" lon="8.66374">
        <ele>286.117</ele>
        <time>2019-10-19T09:30:58Z</time>
      </trkpt>
      <trkpt lat="42.25442" lon="8.66324">
        <ele>289.834</ele>
        <time>2019-10-19T09:31:28Z</time>
      </trkpt>
      <trkpt lat="42.2543" lon="8.66394">
        <ele>290.532</ele>
        <time>2019-10-19T09:32:01Z</time>
      </trkpt>
      <trkpt lat="42.25422" lon="8.66472">
        <ele>294.573</ele>
        <time>2019-10-19T09:32:31Z</time>
      </trkpt>
      <trkpt lat="42.25422" lon="8.66558">
        <ele>295.869</ele>
        <time>2019-10-19T09:33:01Z</time>
      </trkpt>
      <trkpt lat="42.25432" lon="8.66632">
        <ele>299.252</ele>
        <time>2019-10-19T09:33:31Z</time>
      </trkpt>
      <trkpt lat="42.25425" lon="8.66721">
        <ele>298.601</ele>
        <time>2019-10-19T09:34:07Z</time>
      </trkpt>
      <trkpt lat="42.25376" lon="8.66783">
        <ele>304.091</ele>
        <time>2019-10-19T09:34:40Z</time>
      </trkpt>
      <trkpt lat="42.25359" lon="8.66849">
        <ele>307.688</ele>
        <time>2019-10-19T09:35:10Z</time>
      </trkpt>
      <trkpt lat="42.25376" lon="8.6692">
        <ele>312.069</ele>
        <time>2019-10-19T09:35:40Z</time>
      </trkpt>
      <trkpt lat="42.25334" lon="8.66895">
        <ele>315.832</ele>
        <time>2019-10-19T09:36:13Z</time>
      </trkpt>
      <trkpt lat="42.25323" lon="8.66805">
        <ele>330.306</ele>
        <time>2019-10-19T09:36:58Z</time>
      </trkpt>
      <trkpt lat="42.25342" lon="8.66726">
        <ele>337.584</ele>
        <time>2019-10-19T09:37:34Z</time>
      </trkpt>
      <trkpt lat="42.25354" lon="8.66655">
        <ele>335.672</ele>
        <time>2019-10-19T09:38:04Z</time>
      </trkpt>
      <trkpt lat="42.25357" lon="8.66564">
        <ele>345.538</ele>
        <time>2019-10-19T09:38:46Z</time>
      </trkpt>
      <trkpt lat="42.25353" lon="8.66485">
        <ele>353.069</ele>
        <time>2019-10-19T09:39:22Z</time>
      </trkpt>
      <trkpt lat="42.25342" lon="8.66419">
        <ele>355.75</ele>
        <time>2019-10-19T09:39:52Z</time>
      </trkpt>
      <trkpt lat="42.25308" lon="8.66357">
        <ele>355.811</ele>
        <time>2019-10-19T09:40:25Z</time>
      </trkpt>
      <trkpt lat="42.25278" lon="8.66288">
        <ele>359.173</ele>
        <time>2019-10-19T09:41:01Z</time>
      </trkpt>
      <trkpt lat="42.25258" lon="8.6622">
        <ele>366.45</ele>
        <time>2019-10-19T09:41:34Z</time>
      </trkpt>
      <trkpt lat="42.25244" lon="8.66143">
        <ele>371.692</ele>
        <time>2019-10-19T09:42:10Z</time>
      </trkpt>
      <trkpt lat="42.25257" lon="8.66077">
        <ele>378.388</ele>
        <time>2019-10-19T09:42:43Z</time>
      </trkpt>
      <trkpt lat="42.25281" lon="8.65988">
        <ele>383.381</ele>
        <time>2019-10-19T09:43:28Z</time>
      </trkpt>
      <trkpt lat="42.25276" lon="8.65911">
        <ele>389.561</ele>
        <time>2019-10-19T09:44:10Z</time>
      </trkpt>
      <trkpt lat="42.25277" lon="8.65837">
        <ele>396.793</ele>
        <time>2019-10-19T09:44:46Z</time>
      </trkpt>
      <trkpt lat="42.25283" lon="8.65775">
        <ele>399.638</ele>
        <time>2019-10-19T09:50:43Z</time>
      </trkpt>
      <trkpt lat="42.25256" lon="8.65752">
        <ele>399.482</ele>
        <time>2019-10-19T09:51:31Z</time>
      </trkpt>
      <trkpt lat="42.25227" lon="8.6582">
        <ele>395.472</ele>
        <time>2019-10-19T09:52:07Z</time>
      </trkpt>
      <trkpt lat="42.25174" lon="8.65881">
        <ele>402.792</ele>
        <time>2019-10-19T09:52:49Z</time>
      </trkpt>
      <trkpt lat="42.25119" lon="8.65894">
        <ele>406.695</ele>
        <time>2019-10-19T09:53:22Z</time>
      </trkpt>
      <trkpt lat="42.25063" lon="8.65873">
        <ele>409.486</ele>
        <time>2019-10-19T09:53:52Z</time>
      </trkpt>
      <trkpt lat="42.25017" lon="8.65883">
        <ele>413.328</ele>
        <time>2019-10-19T09:54:22Z</time>
      </trkpt>
      <trkpt lat="42.24972" lon="8.65938">
        <ele>422.055</ele>
        <time>2019-10-19T09:54:55Z</time>
      </trkpt>
      <trkpt lat="42.24946" lon="8.66007">
        <ele>426.858</ele>
        <time>2019-10-19T09:55:25Z</time>
      </trkpt>
      <trkpt lat="42.24895" lon="8.66063">
        <ele>435.332</ele>
        <time>2019-10-19T09:56:07Z</time>
      </trkpt>
      <trkpt lat="42.24846" lon="8.66007">
        <ele>436.866</ele>
        <time>2019-10-19T09:56:40Z</time>
      </trkpt>
      <trkpt lat="42.24817" lon="8.65951">
        <ele>432.586</ele>
        <time>2019-10-19T09:57:10Z</time>
      </trkpt>
      <trkpt lat="42.24799" lon="8.65884">
        <ele>434.899</ele>
        <time>2019-10-19T09:57:40Z</time>
      </trkpt>
      <trkpt lat="42.24775" lon="8.65813">
        <ele>439.161</ele>
        <time>2019-10-19T09:58:10Z</time>
      </trkpt>
      <trkpt lat="42.24782" lon="8.65726">
        <ele>440.376</ele>
        <time>2019-10-19T09:58:46Z</time>
      </trkpt>
      <trkpt lat="42.24741" lon="8.65676">
        <ele>441.876</ele>
        <time>2019-10-19T09:59:16Z</time>
      </trkpt>
      <trkpt lat="42.24761" lon="8.65609">
        <ele>437.871</ele>
        <time>2019-10-19T09:59:52Z</time>
      </trkpt>
      <trkpt lat="42.24771" lon="8.6554">
        <ele>438.413</ele>
        <time>2019-10-19T10:00:22Z</time>
      </trkpt>
      <trkpt lat="42.24751" lon="8.65462">
        <ele>451.089</ele>
        <time>2019-10-19T10:00:52Z</time>
      </trkpt>
      <trkpt lat="42.24712" lon="8.6546">
        <ele>452.704</ele>
        <time>2019-10-19T10:04:01Z</time>
      </trkpt>
      <trkpt lat="42.2457" lon="8.65407">
        <ele>448.129</ele>
        <time>2019-10-19T10:04:31Z</time>
      </trkpt>
      <trkpt lat="42.24455" lon="8.65364">
        <ele>448.014</ele>
        <time>2019-10-19T10:05:04Z</time>
      </trkpt>
      <trkpt lat="42.24394" lon="8.65369">
        <ele>452.161</ele>
        <time>2019-10-19T10:05:37Z</time>
      </trkpt>
      <trkpt lat="42.2433" lon="8.65405">
        <ele>456.063</ele>
        <time>2019-10-19T10:06:13Z</time>
      </trkpt>
      <trkpt lat="42.24284" lon="8.6542">
        <ele>457.04</ele>
        <time>2019-10-19T10:06:43Z</time>
      </trkpt>
      <trkpt lat="42.24274" lon="8.65341">
        <ele>462.544</ele>
        <time>2019-10-19T10:07:13Z</time>
      </trkpt>
      <trkpt lat="42.24248" lon="8.65289">
        <ele>461.222</ele>
        <time>2019-10-19T10:07:43Z</time>
      </trkpt>
      <trkpt lat="42.24209" lon="8.65342">
        <ele>466.317</ele>
        <time>2019-10-19T10:08:13Z</time>
      </trkpt>
      <trkpt lat="42.24164" lon="8.6529">
        <ele>469.565</ele>
        <time>2019-10-19T10:08:46Z</time>
      </trkpt>
      <trkpt lat="42.24118" lon="8.65247">
        <ele>470.83</ele>
        <time>2019-10-19T10:09:19Z</time>
      </trkpt>
      <trkpt lat="42.24012" lon="8.6524">
        <ele>467.204</ele>
        <time>2019-10-19T10:09:49Z</time>
      </trkpt>
      <trkpt lat="42.23918" lon="8.65213">
        <ele>467.238</ele>
        <time>2019-10-19T10:10:19Z</time>
      </trkpt>
      <trkpt lat="42.23994" lon="8.65052">
        <ele>464.509</ele>
        <time>2019-10-19T10:10:49Z</time>
      </trkpt>
      <trkpt lat="42.24021" lon="8.64831">
        <ele>459.861</ele>
        <time>2019-10-19T10:11:19Z</time>
      </trkpt>
      <trkpt lat="42.24049" lon="8.64615">
        <ele>458.437</ele>
        <time>2019-10-19T10:11:49Z</time>
      </trkpt>
      <trkpt lat="42.24045" lon="8.64368">
        <ele>453.626</ele>
        <time>2019-10-19T10:12:19Z</time>
      </trkpt>
      <trkpt lat="42.23963" lon="8.6413">
        <ele>448.311</ele>
        <time>2019-10-19T10:12:52Z</time>
      </trkpt>
      <trkpt lat="42.23847" lon="8.63962">
        <ele>442.493</ele>
        <time>2019-10-19T10:13:22Z</time>
      </trkpt>
      <trkpt lat="42.23788" lon="8.63816">
        <ele>440.495</ele>
        <time>2019-10-19T10:13:52Z</time>
      </trkpt>
      <trkpt lat="42.23828" lon="8.6368">
        <ele>443.73</ele>
        <time>2019-10-19T10:14:22Z</time>
      </trkpt>
      <trkpt lat="42.23835" lon="8.63666">
        <ele>441.384</ele>
        <time>2019-10-19T10:15:46Z</time>
      </trkpt>
      <trkpt lat="42.23773" lon="8.63656">
        <ele>444.504</ele>
        <time>2019-10-19T10:16:16Z</time>
      </trkpt>
      <trkpt lat="42.23773" lon="8.6367">
        <ele>448.955</ele>
        <time>2019-10-19T10:17:16Z</time>
      </trkpt>
      <trkpt lat="42.23748" lon="8.63643">
        <ele>453.519</ele>
        <time>2019-10-19T10:21:52Z</time>
      </trkpt>
      <trkpt lat="42.23722" lon="8.63566">
        <ele>455.126</ele>
        <time>2019-10-19T10:22:28Z</time>
      </trkpt>
      <trkpt lat="42.23735" lon="8.63489">
        <ele>460.623</ele>
        <time>2019-10-19T10:23:04Z</time>
      </trkpt>
      <trkpt lat="42.23783" lon="8.63442">
        <ele>465.489</ele>
        <time>2019-10-19T10:23:37Z</time>
      </trkpt>
      <trkpt lat="42.23808" lon="8.63372">
        <ele>462.609</ele>
        <time>2019-10-19T10:24:07Z</time>
      </trkpt>
      <trkpt lat="42.23781" lon="8.63302">
        <ele>470.08</ele>
        <time>2019-10-19T10:24:43Z</time>
      </trkpt>
      <trkpt lat="42.23738" lon="8.63252">
        <ele>474.799</ele>
        <time>2019-10-19T10:25:13Z</time>
      </trkpt>
      <trkpt lat="42.23723" lon="8.63186">
        <ele>475.155</ele>
        <time>2019-10-19T10:25:43Z</time>
      </trkpt>
      <trkpt lat="42.23702" lon="8.63116">
        <ele>478.68</ele>
        <time>2019-10-19T10:26:13Z</time>
      </trkpt>
      <trkpt lat="42.23662" lon="8.63065">
        <ele>484.426</ele>
        <time>2019-10-19T10:26:46Z</time>
      </trkpt>
      <trkpt lat="42.23616" lon="8.63013">
        <ele>492.699</ele>
        <time>2019-10-19T10:27:22Z</time>
      </trkpt>
      <trkpt lat="42.23562" lon="8.62951">
        <ele>499.338</ele>
        <time>2019-10-19T10:27:58Z</time>
      </trkpt>
      <trkpt lat="42.23373" lon="8.62812">
        <ele>480.93</ele>
        <time>2019-10-19T10:28:28Z</time>
      </trkpt>
      <trkpt lat="42.23088" lon="8.62819">
        <ele>462.458</ele>
        <time>2019-10-19T10:28:58Z</time>
      </trkpt>
      <trkpt lat="42.22943" lon="8.63045">
        <ele>455.29</ele>
        <time>2019-10-19T10:29:28Z</time>
      </trkpt>
      <trkpt lat="42.22781" lon="8.63069">
        <ele>454.515</ele>
        <time>2019-10-19T10:29:58Z</time>
      </trkpt>
      <trkpt lat="42.22599" lon="8.63074">
        <ele>454.193</ele>
        <time>2019-10-19T10:30:28Z</time>
      </trkpt>
      <trkpt lat="42.2243" lon="8.63096">
        <ele>450.094</ele>
        <time>2019-10-19T10:30:58Z</time>
      </trkpt>
      <trkpt lat="42.22282" lon="8.63247">
        <ele>449.053</ele>
        <time>2019-10-19T10:31:31Z</time>
      </trkpt>
      <trkpt lat="42.22181" lon="8.63417">
        <ele>442.277</ele>
        <time>2019-10-19T10:32:01Z</time>
      </trkpt>
      <trkpt lat="42.22215" lon="8.6362">
        <ele>442.365</ele>
        <time>2019-10-19T10:32:31Z</time>
      </trkpt>
      <trkpt lat="42.2227" lon="8.63832">
        <ele>441.568</ele>
        <time>2019-10-19T10:33:01Z</time>
      </trkpt>
      <trkpt lat="42.22138" lon="8.63962">
        <ele>435.636</ele>
        <time>2019-10-19T10:33:31Z</time>
      </trkpt>
      <trkpt lat="42.21979" lon="8.64116">
        <ele>430.978</ele>
        <time>2019-10-19T10:34:01Z</time>
      </trkpt>
      <trkpt lat="42.21853" lon="8.64277">
        <ele>427.889</ele>
        <time>2019-10-19T10:34:31Z</time>
      </trkpt>
      <trkpt lat="42.21712" lon="8.64282">
        <ele>426.581</ele>
        <time>2019-10-19T10:35:01Z</time>
      </trkpt>
      <trkpt lat="42.21518" lon="8.64357">
        <ele>422.011</ele>
        <time>2019-10-19T10:35:31Z</time>
      </trkpt>
      <trkpt lat="42.21419" lon="8.64707">
        <ele>405.765</ele>
        <time>2019-10-19T10:36:01Z</time>
      </trkpt>
      <trkpt lat="42.21282" lon="8.65021">
        <ele>381.58</ele>
        <time>2019-10-19T10:36:31Z</time>
      </trkpt>
      <trkpt lat="42.21224" lon="8.65479">
        <ele>360.862</ele>
        <time>2019-10-19T10:37:01Z</time>
      </trkpt>
      <trkpt lat="42.21065" lon="8.65594">
        <ele>337.815</ele>
        <time>2019-10-19T10:37:31Z</time>
      </trkpt>
      <trkpt lat="42.20873" lon="8.65248">
        <ele>313.943</ele>
        <time>2019-10-19T10:38:04Z</time>
      </trkpt>
      <trkpt lat="42.20745" lon="8.64825">
        <ele>291.107</ele>
        <time>2019-10-19T10:38:34Z</time>
      </trkpt>
      <trkpt lat="42.20684" lon="8.6452">
        <ele>272.068</ele>
        <time>2019-10-19T10:39:04Z</time>
      </trkpt>
      <trkpt lat="42.20431" lon="8.64316">
        <ele>256.418</ele>
        <time>2019-10-19T10:39:34Z</time>
      </trkpt>
      <trkpt lat="42.20279" lon="8.64119">
        <ele>239.884</ele>
        <time>2019-10-19T10:40:04Z</time>
      </trkpt>
      <trkpt lat="42.2" lon="8.63979">
        <ele>216.079</ele>
        <time>2019-10-19T10:40:34Z</time>
      </trkpt>
      <trkpt lat="42.19697" lon="8.63734">
        <ele>192.114</ele>
        <time>2019-10-19T10:41:04Z</time>
      </trkpt>
      <trkpt lat="42.19553" lon="8.63552">
        <ele>170.804</ele>
        <time>2019-10-19T10:41:34Z</time>
      </trkpt>
      <trkpt lat="42.19479" lon="8.63463">
        <ele>165.086</ele>
        <time>2019-10-19T10:48:52Z</time>
      </trkpt>
      <trkpt lat="42.19218" lon="8.63316">
        <ele>150.271</ele>
        <time>2019-10-19T10:49:22Z</time>
      </trkpt>
      <trkpt lat="42.19131" lon="8.63054">
        <ele>126.838</ele>
        <time>2019-10-19T10:49:52Z</time>
      </trkpt>
      <trkpt lat="42.19369" lon="8.62826">
        <ele>106.114</ele>
        <time>2019-10-19T10:50:22Z</time>
      </trkpt>
      <trkpt lat="42.1909" lon="8.62789">
        <ele>85.958</ele>
        <time>2019-10-19T10:50:52Z</time>
      </trkpt>
      <trkpt lat="42.188" lon="8.62575">
        <ele>59.844</ele>
        <time>2019-10-19T10:51:25Z</time>
      </trkpt>
      <trkpt lat="42.18672" lon="8.62162">
        <ele>42.989</ele>
        <time>2019-10-19T10:51:55Z</time>
      </trkpt>
      <trkpt lat="42.18482" lon="8.61767">
        <ele>22.419</ele>
        <time>2019-10-19T10:52:25Z</time>
      </trkpt>
      <trkpt lat="42.18232" lon="8.61653">
        <ele>12.446</ele>
        <time>2019-10-19T10:52:55Z</time>
      </trkpt>
      <trkpt lat="42.18077" lon="8.61516">
        <ele>11.297</ele>
        <time>2019-10-19T10:53:25Z</time>
      </trkpt>
      <trkpt lat="42.17901" lon="8.61399">
        <ele>10.654</ele>
        <time>2019-10-19T10:53:55Z</time>
      </trkpt>
      <trkpt lat="42.17731" lon="8.61302">
        <ele>5.062</ele>
        <time>2019-10-19T10:54:25Z</time>
      </trkpt>
      <trkpt lat="42.17585" lon="8.61216">
        <ele>3.415</ele>
        <time>2019-10-19T10:54:55Z</time>
      </trkpt>
      <trkpt lat="42.17443" lon="8.61141">
        <ele>8.398</ele>
        <time>2019-10-19T10:55:25Z</time>
      </trkpt>
      <trkpt lat="42.17328" lon="8.61052">
        <ele>9.143</ele>
        <time>2019-10-19T10:55:55Z</time>
      </trkpt>
      <trkpt lat="42.17281" lon="8.60937">
        <ele>13.658</ele>
        <time>2019-10-19T10:56:25Z</time>
      </trkpt>
      <trkpt lat="42.17248" lon="8.60847">
        <ele>19.389</ele>
        <time>2019-10-19T10:56:55Z</time>
      </trkpt>
      <trkpt lat="42.17179" lon="8.60832">
        <ele>22.337</ele>
        <time>2019-10-19T10:57:25Z</time>
      </trkpt>
      <trkpt lat="42.17111" lon="8.60879">
        <ele>25.722</ele>
        <time>2019-10-19T10:57:58Z</time>
      </trkpt>
      <trkpt lat="42.17045" lon="8.60906">
        <ele>27.622</ele>
        <time>2019-10-19T10:58:28Z</time>
      </trkpt>
      <trkpt lat="42.16983" lon="8.60902">
        <ele>31.117</ele>
        <time>2019-10-19T10:58:58Z</time>
      </trkpt>
      <trkpt lat="42.16935" lon="8.60858">
        <ele>34.853</ele>
        <time>2019-10-19T10:59:28Z</time>
      </trkpt>
      <trkpt lat="42.16894" lon="8.60807">
        <ele>41.873</ele>
        <time>2019-10-19T10:59:58Z</time>
      </trkpt>
      <trkpt lat="42.1686" lon="8.60744">
        <ele>43.913</ele>
        <time>2019-10-19T11:00:28Z</time>
      </trkpt>
      <trkpt lat="42.16836" lon="8.60679">
        <ele>45.536</ele>
        <time>2019-10-19T11:00:58Z</time>
      </trkpt>
      <trkpt lat="42.16815" lon="8.60611">
        <ele>53.856</ele>
        <time>2019-10-19T11:01:28Z</time>
      </trkpt>
      <trkpt lat="42.16794" lon="8.60543">
        <ele>58.912</ele>
        <time>2019-10-19T11:01:58Z</time>
      </trkpt>
      <trkpt lat="42.16759" lon="8.60475">
        <ele>53.776</ele>
        <time>2019-10-19T11:02:28Z</time>
      </trkpt>
      <trkpt lat="42.16715" lon="8.60425">
        <ele>56.83</ele>
        <time>2019-10-19T11:02:58Z</time>
      </trkpt>
      <trkpt lat="42.16671" lon="8.60382">
        <ele>59.413</ele>
        <time>2019-10-19T11:03:28Z</time>
      </trkpt>
      <trkpt lat="42.16623" lon="8.60331">
        <ele>64.778</ele>
        <time>2019-10-19T11:04:01Z</time>
      </trkpt>
      <trkpt lat="42.1658" lon="8.60283">
        <ele>68.646</ele>
        <time>2019-10-19T11:04:31Z</time>
      </trkpt>
      <trkpt lat="42.16535" lon="8.60239">
        <ele>70.629</ele>
        <time>2019-10-19T11:05:01Z</time>
      </trkpt>
      <trkpt lat="42.16486" lon="8.602">
        <ele>74.829</ele>
        <time>2019-10-19T11:05:31Z</time>
      </trkpt>
      <trkpt lat="42.16428" lon="8.60184">
        <ele>77.224</ele>
        <time>2019-10-19T11:06:01Z</time>
      </trkpt>
      <trkpt lat="42.16373" lon="8.60161">
        <ele>82.067</ele>
        <time>2019-10-19T11:06:34Z</time>
      </trkpt>
      <trkpt lat="42.16342" lon="8.60099">
        <ele>85.489</ele>
        <time>2019-10-19T11:07:04Z</time>
      </trkpt>
      <trkpt lat="42.16335" lon="8.60022">
        <ele>87.285</ele>
        <time>2019-10-19T11:07:34Z</time>
      </trkpt>
      <trkpt lat="42.16328" lon="8.59949">
        <ele>90.598</ele>
        <time>2019-10-19T11:08:04Z</time>
      </trkpt>
      <trkpt lat="42.16296" lon="8.59887">
        <ele>91.115</ele>
        <time>2019-10-19T11:08:34Z</time>
      </trkpt>
      <trkpt lat="42.16254" lon="8.59836">
        <ele>93.292</ele>
        <time>2019-10-19T11:09:04Z</time>
      </trkpt>
      <trkpt lat="42.16211" lon="8.59778">
        <ele>99.37</ele>
        <time>2019-10-19T11:09:37Z</time>
      </trkpt>
      <trkpt lat="42.16152" lon="8.59714">
        <ele>101.449</ele>
        <time>2019-10-19T11:10:07Z</time>
      </trkpt>
      <trkpt lat="42.15988" lon="8.59677">
        <ele>83.771</ele>
        <time>2019-10-19T11:10:40Z</time>
      </trkpt>
      <trkpt lat="42.15782" lon="8.59627">
        <ele>59.929</ele>
        <time>2019-10-19T11:11:10Z</time>
      </trkpt>
      <trkpt lat="42.15631" lon="8.59554">
        <ele>42.78</ele>
        <time>2019-10-19T11:11:40Z</time>
      </trkpt>
      <trkpt lat="42.15513" lon="8.5937">
        <ele>31.792</ele>
        <time>2019-10-19T11:12:10Z</time>
      </trkpt>
      <trkpt lat="42.15408" lon="8.59316">
        <ele>32.788</ele>
        <time>2019-10-19T11:12:40Z</time>
      </trkpt>
      <trkpt lat="42.15219" lon="8.59443">
        <ele>27.221</ele>
        <time>2019-10-19T11:13:10Z</time>
      </trkpt>
      <trkpt lat="42.15071" lon="8.5937">
        <ele>20.442</ele>
        <time>2019-10-19T11:13:40Z</time>
      </trkpt>
      <trkpt lat="42.14854" lon="8.59405">
        <ele>5.412</ele>
        <time>2019-10-19T11:14:10Z</time>
      </trkpt>
      <trkpt lat="42.1474" lon="8.59515">
        <ele>2.809</ele>
        <time>2019-10-19T11:14:40Z</time>
      </trkpt>
      <trkpt lat="42.14639" lon="8.59584">
        <ele>3.863</ele>
        <time>2019-10-19T11:15:10Z</time>
      </trkpt>
      <trkpt lat="42.14563" lon="8.59631">
        <ele>9.47</ele>
        <time>2019-10-19T11:15:43Z</time>
      </trkpt>
      <trkpt lat="42.14528" lon="8.59702">
        <ele>15.377</ele>
        <time>2019-10-19T11:16:13Z</time>
      </trkpt>
      <trkpt lat="42.14505" lon="8.5977">
        <ele>12.759</ele>
        <time>2019-10-19T11:16:43Z</time>
      </trkpt>
      <trkpt lat="42.14426" lon="8.59758">
        <ele>15.337</ele>
        <time>2019-10-19T11:17:16Z</time>
      </trkpt>
      <trkpt lat="42.14353" lon="8.59771">
        <ele>19.321</ele>
        <time>2019-10-19T11:17:46Z</time>
      </trkpt>
      <trkpt lat="42.14278" lon="8.59795">
        <ele>23.732</ele>
        <time>2019-10-19T11:18:16Z</time>
      </trkpt>
      <trkpt lat="42.14221" lon="8.59831">
        <ele>28.391</ele>
        <time>2019-10-19T11:18:49Z</time>
      </trkpt>
      <trkpt lat="42.14169" lon="8.59861">
        <ele>30.383</ele>
        <time>2019-10-19T11:19:19Z</time>
      </trkpt>
      <trkpt lat="42.14109" lon="8.59883">
        <ele>36.173</ele>
        <time>2019-10-19T11:20:01Z</time>
      </trkpt>
      <trkpt lat="42.14056" lon="8.59865">
        <ele>41.961</ele>
        <time>2019-10-19T11:20:34Z</time>
      </trkpt>
      <trkpt lat="42.14035" lon="8.59821">
        <ele>45.373</ele>
        <time>2019-10-19T11:24:13Z</time>
      </trkpt>
      <trkpt lat="42.14009" lon="8.5978">
        <ele>47.642</ele>
        <time>2019-10-19T11:25:01Z</time>
      </trkpt>
      <trkpt lat="42.13961" lon="8.59744">
        <ele>53.825</ele>
        <time>2019-10-19T11:25:55Z</time>
      </trkpt>
      <trkpt lat="42.1392" lon="8.59704">
        <ele>60.526</ele>
        <time>2019-10-19T11:26:49Z</time>
      </trkpt>
      <trkpt lat="42.1389" lon="8.59685">
        <ele>61.728</ele>
        <time>2019-10-19T11:27:58Z</time>
      </trkpt>
      <trkpt lat="42.13838" lon="8.5968">
        <ele>68.809</ele>
        <time>2019-10-19T11:29:01Z</time>
      </trkpt>
      <trkpt lat="42.13801" lon="8.59669">
        <ele>74.647</ele>
        <time>2019-10-19T11:30:10Z</time>
      </trkpt>
      <trkpt lat="42.13763" lon="8.59652">
        <ele>82.511</ele>
        <time>2019-10-19T11:31:43Z</time>
      </trkpt>
      <trkpt lat="42.13712" lon="8.59644">
        <ele>89.098</ele>
        <time>2019-10-19T11:32:43Z</time>
      </trkpt>
      <trkpt lat="42.13677" lon="8.59624">
        <ele>92.094</ele>
        <time>2019-10-19T11:33:46Z</time>
      </trkpt>
      <trkpt lat="42.13622" lon="8.59602">
        <ele>93.459</ele>
        <time>2019-10-19T11:53:22Z</time>
      </trkpt>
      <trkpt lat="42.13603" lon="8.59704">
        <ele>98.133</ele>
        <time>2019-10-19T11:55:31Z</time>
      </trkpt>
      <trkpt lat="42.13447" lon="8.5969">
        <ele>86.351</ele>
        <time>2019-10-19T11:56:01Z</time>
      </trkpt>
      <trkpt lat="42.13372" lon="8.59837">
        <ele>77.526</ele>
        <time>2019-10-19T11:56:31Z</time>
      </trkpt>
      <trkpt lat="42.134" lon="8.59992">
        <ele>76.989</ele>
        <time>2019-10-19T11:57:01Z</time>
      </trkpt>
      <trkpt lat="42.13481" lon="8.60146">
        <ele>78.17</ele>
        <time>2019-10-19T11:57:31Z</time>
      </trkpt>
      <trkpt lat="42.13548" lon="8.60325">
        <ele>75.526</ele>
        <time>2019-10-19T11:58:01Z</time>
      </trkpt>
      <trkpt lat="42.13671" lon="8.60445">
        <ele>75.505</ele>
        <time>2019-10-19T11:58:31Z</time>
      </trkpt>
      <trkpt lat="42.13626" lon="8.60623">
        <ele>77.839</ele>
        <time>2019-10-19T11:59:04Z</time>
      </trkpt>
      <trkpt lat="42.13582" lon="8.60749">
        <ele>77.274</ele>
        <time>2019-10-19T11:59:34Z</time>
      </trkpt>
      <trkpt lat="42.13693" lon="8.6093">
        <ele>68.302</ele>
        <time>2019-10-19T12:00:04Z</time>
      </trkpt>
      <trkpt lat="42.13655" lon="8.61309">
        <ele>58.125</ele>
        <time>2019-10-19T12:00:34Z</time>
      </trkpt>
      <trkpt lat="42.1371" lon="8.61691">
        <ele>40.736</ele>
        <time>2019-10-19T12:01:04Z</time>
      </trkpt>
      <trkpt lat="42.13678" lon="8.61973">
        <ele>28.919</ele>
        <time>2019-10-19T12:01:34Z</time>
      </trkpt>
      <trkpt lat="42.13601" lon="8.61972">
        <ele>35.582</ele>
        <time>2019-10-19T12:02:04Z</time>
      </trkpt>
      <trkpt lat="42.13535" lon="8.61985">
        <ele>40.988</ele>
        <time>2019-10-19T12:02:34Z</time>
      </trkpt>
      <trkpt lat="42.13469" lon="8.61986">
        <ele>46.541</ele>
        <time>2019-10-19T12:03:04Z</time>
      </trkpt>
      <trkpt lat="42.13401" lon="8.61978">
        <ele>53.983</ele>
        <time>2019-10-19T12:03:34Z</time>
      </trkpt>
      <trkpt lat="42.13337" lon="8.62007">
        <ele>55.884</ele>
        <time>2019-10-19T12:04:04Z</time>
      </trkpt>
      <trkpt lat="42.13272" lon="8.62035">
        <ele>59.406</ele>
        <time>2019-10-19T12:04:34Z</time>
      </trkpt>
      <trkpt lat="42.13207" lon="8.62034">
        <ele>59.422</ele>
        <time>2019-10-19T12:05:04Z</time>
      </trkpt>
      <trkpt lat="42.13136" lon="8.62024">
        <ele>65.049</ele>
        <time>2019-10-19T12:05:37Z</time>
      </trkpt>
      <trkpt lat="42.13071" lon="8.62034">
        <ele>67.883</ele>
        <time>2019-10-19T12:06:07Z</time>
      </trkpt>
      <trkpt lat="42.13004" lon="8.62026">
        <ele>74.64</ele>
        <time>2019-10-19T12:06:37Z</time>
      </trkpt>
      <trkpt lat="42.12942" lon="8.61997">
        <ele>81.049</ele>
        <time>2019-10-19T12:07:07Z</time>
      </trkpt>
      <trkpt lat="42.12894" lon="8.61944">
        <ele>80.303</ele>
        <time>2019-10-19T12:07:37Z</time>
      </trkpt>
      <trkpt lat="42.12826" lon="8.61938">
        <ele>81.061</ele>
        <time>2019-10-19T12:08:07Z</time>
      </trkpt>
      <trkpt lat="42.12757" lon="8.61928">
        <ele>83.676</ele>
        <time>2019-10-19T12:08:37Z</time>
      </trkpt>
      <trkpt lat="42.12693" lon="8.61953">
        <ele>86.189</ele>
        <time>2019-10-19T12:09:07Z</time>
      </trkpt>
      <trkpt lat="42.12614" lon="8.62167">
        <ele>86.113</ele>
        <time>2019-10-19T12:09:37Z</time>
      </trkpt>
      <trkpt lat="42.12598" lon="8.62558">
        <ele>74.894</ele>
        <time>2019-10-19T12:10:07Z</time>
      </trkpt>
      <trkpt lat="42.12395" lon="8.62734">
        <ele>54.905</ele>
        <time>2019-10-19T12:10:37Z</time>
      </trkpt>
      <trkpt lat="42.12426" lon="8.63189">
        <ele>34.014</ele>
        <time>2019-10-19T12:11:07Z</time>
      </trkpt>
      <trkpt lat="42.12465" lon="8.63496">
        <ele>16.286</ele>
        <time>2019-10-19T12:11:37Z</time>
      </trkpt>
      <trkpt lat="42.12455" lon="8.63749">
        <ele>16.416</ele>
        <time>2019-10-19T12:12:10Z</time>
      </trkpt>
      <trkpt lat="42.12488" lon="8.63946">
        <ele>17.641</ele>
        <time>2019-10-19T12:12:40Z</time>
      </trkpt>
      <trkpt lat="42.12473" lon="8.64145">
        <ele>17.518</ele>
        <time>2019-10-19T12:13:10Z</time>
      </trkpt>
      <trkpt lat="42.1237" lon="8.6438">
        <ele>15.084</ele>
        <time>2019-10-19T12:13:40Z</time>
      </trkpt>
      <trkpt lat="42.12256" lon="8.64731">
        <ele>5.108</ele>
        <time>2019-10-19T12:14:10Z</time>
      </trkpt>
      <trkpt lat="42.1209" lon="8.64823">
        <ele>3.028</ele>
        <time>2019-10-19T12:14:40Z</time>
      </trkpt>
      <trkpt lat="42.12011" lon="8.6496">
        <ele>4.184</ele>
        <time>2019-10-19T12:15:10Z</time>
      </trkpt>
      <trkpt lat="42.11946" lon="8.65107">
        <ele>2.195</ele>
        <time>2019-10-19T12:15:40Z</time>
      </trkpt>
      <trkpt lat="42.11865" lon="8.65259">
        <ele>7.033</ele>
        <time>2019-10-19T12:16:10Z</time>
      </trkpt>
      <trkpt lat="42.11747" lon="8.65257">
        <ele>4.539</ele>
        <time>2019-10-19T12:16:40Z</time>
      </trkpt>
      <trkpt lat="42.11662" lon="8.65192">
        <ele>7.623</ele>
        <time>2019-10-19T12:17:10Z</time>
      </trkpt>
      <trkpt lat="42.11563" lon="8.65168">
        <ele>10.377</ele>
        <time>2019-10-19T12:17:40Z</time>
      </trkpt>
      <trkpt lat="42.11455" lon="8.65243">
        <ele>12.22</ele>
        <time>2019-10-19T12:18:10Z</time>
      </trkpt>
      <trkpt lat="42.1131" lon="8.6543">
        <ele>6.61</ele>
        <time>2019-10-19T12:18:43Z</time>
      </trkpt>
      <trkpt lat="42.11192" lon="8.65573">
        <ele>7.067</ele>
        <time>2019-10-19T12:19:13Z</time>
      </trkpt>
      <trkpt lat="42.11124" lon="8.65619">
        <ele>9.442</ele>
        <time>2019-10-19T12:19:43Z</time>
      </trkpt>
      <trkpt lat="42.1108" lon="8.65702">
        <ele>10.393</ele>
        <time>2019-10-19T12:20:13Z</time>
      </trkpt>
      <trkpt lat="42.11008" lon="8.65759">
        <ele>14.282</ele>
        <time>2019-10-19T12:20:43Z</time>
      </trkpt>
      <trkpt lat="42.10942" lon="8.65871">
        <ele>16.347</ele>
        <time>2019-10-19T12:21:13Z</time>
      </trkpt>
      <trkpt lat="42.10868" lon="8.6593">
        <ele>20.24</ele>
        <time>2019-10-19T12:21:43Z</time>
      </trkpt>
      <trkpt lat="42.10799" lon="8.65985">
        <ele>23.385</ele>
        <time>2019-10-19T12:22:13Z</time>
      </trkpt>
      <trkpt lat="42.10753" lon="8.66039">
        <ele>27.084</ele>
        <time>2019-10-19T12:22:43Z</time>
      </trkpt>
      <trkpt lat="42.10728" lon="8.66122">
        <ele>26.521</ele>
        <time>2019-10-19T12:23:13Z</time>
      </trkpt>
      <trkpt lat="42.10668" lon="8.66171">
        <ele>32.633</ele>
        <time>2019-10-19T12:23:43Z</time>
      </trkpt>
      <trkpt lat="42.1064" lon="8.66237">
        <ele>35.763</ele>
        <time>2019-10-19T12:24:13Z</time>
      </trkpt>
      <trkpt lat="42.10679" lon="8.66335">
        <ele>34.17</ele>
        <time>2019-10-19T12:34:04Z</time>
      </trkpt>
      <trkpt lat="42.10738" lon="8.66572">
        <ele>28.896</ele>
        <time>2019-10-19T12:34:34Z</time>
      </trkpt>
      <trkpt lat="42.10775" lon="8.66907">
        <ele>25.35</ele>
        <time>2019-10-19T12:35:04Z</time>
      </trkpt>
      <trkpt lat="42.1081" lon="8.67278">
        <ele>7.897</ele>
        <time>2019-10-19T12:35:34Z</time>
      </trkpt>
      <trkpt lat="42.10709" lon="8.67567">
        <ele>3.065</ele>
        <time>2019-10-19T12:36:04Z</time>
      </trkpt>
      <trkpt lat="42.10621" lon="8.67742">
        <ele>8.139</ele>
        <time>2019-10-19T12:36:34Z</time>
      </trkpt>
      <trkpt lat="42.10554" lon="8.67869">
        <ele>11.754</ele>
        <time>2019-10-19T12:37:04Z</time>
      </trkpt>
      <trkpt lat="42.10595" lon="8.68061">
        <ele>10.695</ele>
        <time>2019-10-19T12:37:34Z</time>
      </trkpt>
      <trkpt lat="42.10778" lon="8.68168">
        <ele>9.504</ele>
        <time>2019-10-19T12:38:04Z</time>
      </trkpt>
      <trkpt lat="42.10888" lon="8.68346">
        <ele>10.441</ele>
        <time>2019-10-19T12:38:34Z</time>
      </trkpt>
      <trkpt lat="42.10981" lon="8.68501">
        <ele>8.275</ele>
        <time>2019-10-19T12:39:04Z</time>
      </trkpt>
      <trkpt lat="42.11066" lon="8.68719">
        <ele>5.688</ele>
        <time>2019-10-19T12:39:34Z</time>
      </trkpt>
      <trkpt lat="42.11246" lon="8.68754">
        <ele>3.696</ele>
        <time>2019-10-19T12:40:04Z</time>
      </trkpt>
      <trkpt lat="42.11422" lon="8.68858">
        <ele>8.279</ele>
        <time>2019-10-19T12:40:37Z</time>
      </trkpt>
      <trkpt lat="42.11576" lon="8.68966">
        <ele>7.569</ele>
        <time>2019-10-19T12:41:07Z</time>
      </trkpt>
      <trkpt lat="42.11632" lon="8.69146">
        <ele>5.302</ele>
        <time>2019-10-19T12:41:40Z</time>
      </trkpt>
      <trkpt lat="42.11586" lon="8.69361">
        <ele>7.108</ele>
        <time>2019-10-19T12:42:10Z</time>
      </trkpt>
      <trkpt lat="42.11531" lon="8.69522">
        <ele>0.662</ele>
        <time>2019-10-19T12:42:40Z</time>
      </trkpt>
      <trkpt lat="42.11525" lon="8.69495">
        <ele>3.341</ele>
        <time>2019-10-19T12:43:22Z</time>
      </trkpt>
      <trkpt lat="42.11473" lon="8.69657">
        <ele>1.661</ele>
        <time>2019-10-19T12:43:55Z</time>
      </trkpt>
      <trkpt lat="42.1147" lon="8.6965">
        <ele>6.526</ele>
        <time>2019-10-19T12:46:07Z</time>
      </trkpt>
      <trkpt lat="42.11455" lon="8.69646">
        <ele>5.286</ele>
        <time>2019-10-19T12:57:25Z</time>
      </trkpt>
      <trkpt lat="42.11456" lon="8.69646">
        <ele>5.286</ele>
        <time>2019-10-19T13:01:16Z</time>
      </trkpt>
      <trkpt lat="42.11453" lon="8.69647">
        <ele>4.281</ele>
        <time>2019-10-19T13:38:49Z</time>
      </trkpt>
      <trkpt lat="42.11453" lon="8.69643">
        <ele>3.577</ele>
        <time>2019-10-19T14:03:52Z</time>
      </trkpt>
      <trkpt lat="42.11453" lon="8.69644">
        <ele>3.888</ele>
        <time>2019-10-19T14:10:22Z</time>
      </trkpt>
      <trkpt lat="42.11455" lon="8.69646">
        <ele>3.122</ele>
        <time>2019-10-19T14:15:49Z</time>
      </trkpt>
      <trkpt lat="42.11467" lon="8.69659">
        <ele>3</ele>
        <time>2019-10-19T14:18:46Z</time>
      </trkpt>
      <trkpt lat="42.11452" lon="8.69707">
        <ele>4.679</ele>
        <time>2019-10-19T14:24:52Z</time>
      </trkpt>
      <trkpt lat="42.11419" lon="8.6983">
        <ele>8.802</ele>
        <time>2019-10-19T14:25:22Z</time>
      </trkpt>
      <trkpt lat="42.11371" lon="8.69989">
        <ele>12.181</ele>
        <time>2019-10-19T14:25:52Z</time>
      </trkpt>
      <trkpt lat="42.11311" lon="8.70168">
        <ele>14.039</ele>
        <time>2019-10-19T14:26:22Z</time>
      </trkpt>
      <trkpt lat="42.11439" lon="8.70162">
        <ele>20.615</ele>
        <time>2019-10-19T14:26:52Z</time>
      </trkpt>
      <trkpt lat="42.11583" lon="8.70131">
        <ele>21.94</ele>
        <time>2019-10-19T14:27:22Z</time>
      </trkpt>
      <trkpt lat="42.11748" lon="8.70125">
        <ele>2.684</ele>
        <time>2019-10-19T14:27:52Z</time>
      </trkpt>
      <trkpt lat="42.11896" lon="8.70124">
        <ele>2.266</ele>
        <time>2019-10-19T14:28:22Z</time>
      </trkpt>
      <trkpt lat="42.12024" lon="8.70175">
        <ele>7.115</ele>
        <time>2019-10-19T14:28:52Z</time>
      </trkpt>
      <trkpt lat="42.12141" lon="8.70289">
        <ele>10.268</ele>
        <time>2019-10-19T14:29:22Z</time>
      </trkpt>
      <trkpt lat="42.12289" lon="8.70333">
        <ele>8.468</ele>
        <time>2019-10-19T14:29:52Z</time>
      </trkpt>
      <trkpt lat="42.12438" lon="8.70382">
        <ele>8.982</ele>
        <time>2019-10-19T14:30:25Z</time>
      </trkpt>
      <trkpt lat="42.12577" lon="8.70439">
        <ele>8.684</ele>
        <time>2019-10-19T14:30:55Z</time>
      </trkpt>
      <trkpt lat="42.12711" lon="8.70488">
        <ele>11.662</ele>
        <time>2019-10-19T14:31:25Z</time>
      </trkpt>
      <trkpt lat="42.12849" lon="8.70512">
        <ele>12.618</ele>
        <time>2019-10-19T14:31:55Z</time>
      </trkpt>
      <trkpt lat="42.12988" lon="8.70556">
        <ele>12.779</ele>
        <time>2019-10-19T14:32:25Z</time>
      </trkpt>
      <trkpt lat="42.13068" lon="8.70513">
        <ele>16.922</ele>
        <time>2019-10-19T14:32:55Z</time>
      </trkpt>
    </trkseg>
  </trk>
</gpx>